sensor_id;sensor_type;location;lat;lon;timestamp;temperature;humidity
42833;DHT22;64089;51.478;5.692;2023-05-28T00:02:04;12.70;99.90
42833;DHT22;64089;51.478;5.692;2023-05-28T00:04:31;12.70;99.90
42833;DHT22;64089;51.478;5.692;2023-05-28T00:06:56;12.70;99.90
42833;DHT22;64089;51.478;5.692;2023-05-28T00:09:22;12.80;99.90
42833;DHT22;64089;51.478;5.692;2023-05-28T00:11:48;12.70;99.90
42833;DHT22;64089;51.478;5.692;2023-05-28T00:14:13;12.70;99.90
42833;DHT22;64089;51.478;5.692;2023-05-28T00:16:39;12.60;99.90
42833;DHT22;64089;51.478;5.692;2023-05-28T00:19:06;12.50;99.90
42833;DHT22;64089;51.478;5.692;2023-05-28T00:21:32;12.40;99.90
42833;DHT22;64089;51.478;5.692;2023-05-28T00:23:59;12.30;99.90
42833;DHT22;64089;51.478;5.692;2023-05-28T00:26:25;12.30;99.90
42833;DHT22;64089;51.478;5.692;2023-05-28T00:28:51;12.30;99.90
42833;DHT22;64089;51.478;5.692;2023-05-28T00:31:17;12.30;99.90
42833;DHT22;64089;51.478;5.692;2023-05-28T00:33:42;12.30;99.90
42833;DHT22;64089;51.478;5.692;2023-05-28T00:36:09;12.30;99.90
42833;DHT22;64089;51.478;5.692;2023-05-28T00:38:36;12.30;99.90
42833;DHT22;64089;51.478;5.692;2023-05-28T00:41:02;12.20;99.90
42833;DHT22;64089;51.478;5.692;2023-05-28T00:43:27;12.20;99.90
42833;DHT22;64089;51.478;5.692;2023-05-28T00:45:57;12.10;99.90
42833;DHT22;64089;51.478;5.692;2023-05-28T00:48:24;12.10;99.90
42833;DHT22;64089;51.478;5.692;2023-05-28T00:50:50;12.10;99.90
42833;DHT22;64089;51.478;5.692;2023-05-28T00:53:19;12.10;99.90
42833;DHT22;64089;51.478;5.692;2023-05-28T00:55:45;12.10;99.90
42833;DHT22;64089;51.478;5.692;2023-05-28T00:58:11;12.10;99.90
42833;DHT22;64089;51.478;5.692;2023-05-28T01:00:37;12.10;99.90
42833;DHT22;64089;51.478;5.692;2023-05-28T01:03:06;12.10;99.90
42833;DHT22;64089;51.478;5.692;2023-05-28T01:05:31;12.00;99.90
42833;DHT22;64089;51.478;5.692;2023-05-28T01:08:04;11.90;99.90
42833;DHT22;64089;51.478;5.692;2023-05-28T01:10:32;11.80;99.90
42833;DHT22;64089;51.478;5.692;2023-05-28T01:12:59;11.70;99.90
42833;DHT22;64089;51.478;5.692;2023-05-28T01:15:26;11.60;99.90
42833;DHT22;64089;51.478;5.692;2023-05-28T01:17:59;11.40;99.90
42833;DHT22;64089;51.478;5.692;2023-05-28T01:20:29;11.30;99.90
42833;DHT22;64089;51.478;5.692;2023-05-28T01:22:59;11.20;99.90
42833;DHT22;64089;51.478;5.692;2023-05-28T01:25:25;11.20;99.90
42833;DHT22;64089;51.478;5.692;2023-05-28T01:27:52;11.10;99.90
42833;DHT22;64089;51.478;5.692;2023-05-28T01:30:18;11.10;99.90
42833;DHT22;64089;51.478;5.692;2023-05-28T01:32:43;11.10;99.90
42833;DHT22;64089;51.478;5.692;2023-05-28T01:35:10;11.20;99.90
42833;DHT22;64089;51.478;5.692;2023-05-28T01:37:46;11.30;99.90
42833;DHT22;64089;51.478;5.692;2023-05-28T01:40:13;11.30;99.90
42833;DHT22;64089;51.478;5.692;2023-05-28T01:42:45;11.40;99.90
42833;DHT22;64089;51.478;5.692;2023-05-28T01:45:12;11.50;99.90
42833;DHT22;64089;51.478;5.692;2023-05-28T01:47:38;11.50;99.90
42833;DHT22;64089;51.478;5.692;2023-05-28T01:50:05;11.40;99.90
42833;DHT22;64089;51.478;5.692;2023-05-28T01:52:31;11.40;99.90
42833;DHT22;64089;51.478;5.692;2023-05-28T01:54:57;11.30;99.90
42833;DHT22;64089;51.478;5.692;2023-05-28T01:57:22;11.30;99.90
42833;DHT22;64089;51.478;5.692;2023-05-28T01:59:48;11.40;99.90
42833;DHT22;64089;51.478;5.692;2023-05-28T02:02:14;11.40;99.90
42833;DHT22;64089;51.478;5.692;2023-05-28T02:04:39;11.40;99.90
42833;DHT22;64089;51.478;5.692;2023-05-28T02:07:05;11.40;99.90
42833;DHT22;64089;51.478;5.692;2023-05-28T02:09:31;11.50;99.90
42833;DHT22;64089;51.478;5.692;2023-05-28T02:11:56;11.50;99.90
42833;DHT22;64089;51.478;5.692;2023-05-28T02:14:24;11.40;99.90
42833;DHT22;64089;51.478;5.692;2023-05-28T02:16:50;11.40;99.90
42833;DHT22;64089;51.478;5.692;2023-05-28T02:19:18;11.40;99.90
42833;DHT22;64089;51.478;5.692;2023-05-28T02:21:44;11.40;99.90
42833;DHT22;64089;51.478;5.692;2023-05-28T02:24:10;11.30;99.90
42833;DHT22;64089;51.478;5.692;2023-05-28T02:26:35;11.40;99.90
42833;DHT22;64089;51.478;5.692;2023-05-28T02:29:01;11.30;99.90
42833;DHT22;64089;51.478;5.692;2023-05-28T02:31:27;11.20;99.90
42833;DHT22;64089;51.478;5.692;2023-05-28T02:33:52;11.30;99.90
42833;DHT22;64089;51.478;5.692;2023-05-28T02:36:18;11.40;99.90
42833;DHT22;64089;51.478;5.692;2023-05-28T02:38:43;11.40;99.90
42833;DHT22;64089;51.478;5.692;2023-05-28T02:41:09;11.30;99.90
42833;DHT22;64089;51.478;5.692;2023-05-28T02:43:35;11.30;99.90
42833;DHT22;64089;51.478;5.692;2023-05-28T02:46:01;11.30;99.90
42833;DHT22;64089;51.478;5.692;2023-05-28T02:48:27;11.30;99.90
42833;DHT22;64089;51.478;5.692;2023-05-28T02:50:52;11.20;99.90
42833;DHT22;64089;51.478;5.692;2023-05-28T02:53:22;11.20;99.90
42833;DHT22;64089;51.478;5.692;2023-05-28T02:55:48;11.20;99.90
42833;DHT22;64089;51.478;5.692;2023-05-28T02:58:14;11.10;99.90
42833;DHT22;64089;51.478;5.692;2023-05-28T03:00:40;11.10;99.90
42833;DHT22;64089;51.478;5.692;2023-05-28T03:03:07;11.10;99.90
42833;DHT22;64089;51.478;5.692;2023-05-28T03:05:34;11.00;99.90
42833;DHT22;64089;51.478;5.692;2023-05-28T03:07:59;11.00;99.90
42833;DHT22;64089;51.478;5.692;2023-05-28T03:10:25;10.90;99.90
42833;DHT22;64089;51.478;5.692;2023-05-28T03:12:51;10.80;99.90
42833;DHT22;64089;51.478;5.692;2023-05-28T03:15:16;10.80;99.90
42833;DHT22;64089;51.478;5.692;2023-05-28T03:17:42;10.80;99.90
42833;DHT22;64089;51.478;5.692;2023-05-28T03:20:08;10.70;99.90
42833;DHT22;64089;51.478;5.692;2023-05-28T03:22:36;10.70;99.90
42833;DHT22;64089;51.478;5.692;2023-05-28T03:25:03;10.70;99.90
42833;DHT22;64089;51.478;5.692;2023-05-28T03:27:28;10.60;99.90
42833;DHT22;64089;51.478;5.692;2023-05-28T03:29:55;10.60;99.90
42833;DHT22;64089;51.478;5.692;2023-05-28T03:32:20;10.60;99.90
42833;DHT22;64089;51.478;5.692;2023-05-28T03:34:46;10.50;99.90
42833;DHT22;64089;51.478;5.692;2023-05-28T03:37:12;10.40;99.90
42833;DHT22;64089;51.478;5.692;2023-05-28T03:39:37;10.30;99.90
42833;DHT22;64089;51.478;5.692;2023-05-28T03:42:03;10.30;99.90
42833;DHT22;64089;51.478;5.692;2023-05-28T03:44:30;10.30;99.90
42833;DHT22;64089;51.478;5.692;2023-05-28T03:46:55;10.20;99.90
42833;DHT22;64089;51.478;5.692;2023-05-28T03:49:21;10.30;99.90
42833;DHT22;64089;51.478;5.692;2023-05-28T03:51:47;10.30;99.90
42833;DHT22;64089;51.478;5.692;2023-05-28T03:54:12;10.40;99.90
42833;DHT22;64089;51.478;5.692;2023-05-28T03:56:38;10.50;99.90
42833;DHT22;64089;51.478;5.692;2023-05-28T03:59:03;10.50;99.90
42833;DHT22;64089;51.478;5.692;2023-05-28T04:01:29;10.50;99.90
42833;DHT22;64089;51.478;5.692;2023-05-28T04:03:55;10.60;99.90
42833;DHT22;64089;51.478;5.692;2023-05-28T04:06:21;10.60;99.90
42833;DHT22;64089;51.478;5.692;2023-05-28T04:08:48;10.60;99.90
42833;DHT22;64089;51.478;5.692;2023-05-28T04:11:14;10.70;99.90
42833;DHT22;64089;51.478;5.692;2023-05-28T04:13:39;10.70;99.90
42833;DHT22;64089;51.478;5.692;2023-05-28T04:16:06;10.70;99.90
42833;DHT22;64089;51.478;5.692;2023-05-28T04:18:32;10.80;99.90
42833;DHT22;64089;51.478;5.692;2023-05-28T04:20:58;10.80;99.90
42833;DHT22;64089;51.478;5.692;2023-05-28T04:23:24;10.80;99.90
42833;DHT22;64089;51.478;5.692;2023-05-28T04:25:49;10.80;99.90
42833;DHT22;64089;51.478;5.692;2023-05-28T04:28:16;10.80;99.90
42833;DHT22;64089;51.478;5.692;2023-05-28T04:30:41;10.80;99.90
42833;DHT22;64089;51.478;5.692;2023-05-28T04:33:07;10.90;99.90
42833;DHT22;64089;51.478;5.692;2023-05-28T04:35:34;10.90;99.90
42833;DHT22;64089;51.478;5.692;2023-05-28T04:37:59;11.00;99.90
42833;DHT22;64089;51.478;5.692;2023-05-28T04:40:25;11.00;99.90
42833;DHT22;64089;51.478;5.692;2023-05-28T04:42:50;11.10;99.90
42833;DHT22;64089;51.478;5.692;2023-05-28T04:45:19;11.10;99.90
42833;DHT22;64089;51.478;5.692;2023-05-28T04:47:45;11.20;99.90
42833;DHT22;64089;51.478;5.692;2023-05-28T04:50:11;11.20;99.90
42833;DHT22;64089;51.478;5.692;2023-05-28T04:52:36;11.30;99.90
42833;DHT22;64089;51.478;5.692;2023-05-28T04:55:02;11.40;99.90
42833;DHT22;64089;51.478;5.692;2023-05-28T04:57:31;11.40;99.90
42833;DHT22;64089;51.478;5.692;2023-05-28T04:59:58;11.60;99.90
42833;DHT22;64089;51.478;5.692;2023-05-28T05:02:23;11.70;99.90
42833;DHT22;64089;51.478;5.692;2023-05-28T05:04:49;11.80;99.90
42833;DHT22;64089;51.478;5.692;2023-05-28T05:07:18;11.90;99.90
42833;DHT22;64089;51.478;5.692;2023-05-28T05:09:44;12.00;99.90
42833;DHT22;64089;51.478;5.692;2023-05-28T05:12:09;12.10;99.90
42833;DHT22;64089;51.478;5.692;2023-05-28T05:14:35;12.20;99.90
42833;DHT22;64089;51.478;5.692;2023-05-28T05:17:02;12.40;99.90
42833;DHT22;64089;51.478;5.692;2023-05-28T05:19:28;12.50;99.90
42833;DHT22;64089;51.478;5.692;2023-05-28T05:21:53;12.60;99.90
42833;DHT22;64089;51.478;5.692;2023-05-28T05:24:19;12.70;99.90
42833;DHT22;64089;51.478;5.692;2023-05-28T05:26:44;12.80;99.90
42833;DHT22;64089;51.478;5.692;2023-05-28T05:29:10;12.90;99.90
42833;DHT22;64089;51.478;5.692;2023-05-28T05:31:36;13.00;99.90
42833;DHT22;64089;51.478;5.692;2023-05-28T05:34:01;13.10;99.90
42833;DHT22;64089;51.478;5.692;2023-05-28T05:36:27;13.20;99.90
42833;DHT22;64089;51.478;5.692;2023-05-28T05:38:52;13.30;99.90
42833;DHT22;64089;51.478;5.692;2023-05-28T05:41:18;13.30;99.90
42833;DHT22;64089;51.478;5.692;2023-05-28T05:43:44;13.40;99.90
42833;DHT22;64089;51.478;5.692;2023-05-28T05:46:09;13.50;99.90
42833;DHT22;64089;51.478;5.692;2023-05-28T05:48:35;13.60;99.90
42833;DHT22;64089;51.478;5.692;2023-05-28T05:51:01;13.70;99.90
42833;DHT22;64089;51.478;5.692;2023-05-28T05:53:28;13.70;99.90
42833;DHT22;64089;51.478;5.692;2023-05-28T05:55:54;13.80;99.90
42833;DHT22;64089;51.478;5.692;2023-05-28T05:58:20;13.90;99.90
42833;DHT22;64089;51.478;5.692;2023-05-28T06:00:46;14.00;99.90
42833;DHT22;64089;51.478;5.692;2023-05-28T06:03:13;14.00;99.90
42833;DHT22;64089;51.478;5.692;2023-05-28T06:05:39;14.10;99.90
42833;DHT22;64089;51.478;5.692;2023-05-28T06:08:06;14.20;99.90
42833;DHT22;64089;51.478;5.692;2023-05-28T06:10:32;14.40;99.90
42833;DHT22;64089;51.478;5.692;2023-05-28T06:12:57;14.50;99.90
42833;DHT22;64089;51.478;5.692;2023-05-28T06:15:27;14.60;99.90
42833;DHT22;64089;51.478;5.692;2023-05-28T06:17:53;14.70;99.90
42833;DHT22;64089;51.478;5.692;2023-05-28T06:20:18;14.80;99.90
42833;DHT22;64089;51.478;5.692;2023-05-28T06:22:45;14.80;99.90
42833;DHT22;64089;51.478;5.692;2023-05-28T06:25:11;15.00;99.90
42833;DHT22;64089;51.478;5.692;2023-05-28T06:27:37;15.00;99.90
42833;DHT22;64089;51.478;5.692;2023-05-28T06:30:03;14.90;99.90
42833;DHT22;64089;51.478;5.692;2023-05-28T06:32:30;15.00;99.90
42833;DHT22;64089;51.478;5.692;2023-05-28T06:34:56;15.10;99.90
42833;DHT22;64089;51.478;5.692;2023-05-28T06:37:22;15.20;99.90
42833;DHT22;64089;51.478;5.692;2023-05-28T06:39:48;15.40;99.90
42833;DHT22;64089;51.478;5.692;2023-05-28T06:42:14;15.50;99.90
42833;DHT22;64089;51.478;5.692;2023-05-28T06:44:40;15.60;99.90
42833;DHT22;64089;51.478;5.692;2023-05-28T06:47:06;15.70;99.90
42833;DHT22;64089;51.478;5.692;2023-05-28T06:49:32;15.80;99.90
42833;DHT22;64089;51.478;5.692;2023-05-28T06:51:58;15.90;99.90
42833;DHT22;64089;51.478;5.692;2023-05-28T06:54:23;15.90;99.90
42833;DHT22;64089;51.478;5.692;2023-05-28T06:56:49;16.10;99.90
42833;DHT22;64089;51.478;5.692;2023-05-28T06:59:18;16.30;99.90
42833;DHT22;64089;51.478;5.692;2023-05-28T07:01:43;16.50;99.90
42833;DHT22;64089;51.478;5.692;2023-05-28T07:04:09;16.70;99.90
42833;DHT22;64089;51.478;5.692;2023-05-28T07:06:35;16.80;99.90
42833;DHT22;64089;51.478;5.692;2023-05-28T07:09:00;16.90;99.90
42833;DHT22;64089;51.478;5.692;2023-05-28T07:11:26;17.00;99.90
42833;DHT22;64089;51.478;5.692;2023-05-28T07:13:52;17.10;99.90
42833;DHT22;64089;51.478;5.692;2023-05-28T07:16:20;17.20;99.90
42833;DHT22;64089;51.478;5.692;2023-05-28T07:18:46;17.30;99.90
42833;DHT22;64089;51.478;5.692;2023-05-28T07:21:12;17.50;99.90
42833;DHT22;64089;51.478;5.692;2023-05-28T07:23:38;17.60;99.90
42833;DHT22;64089;51.478;5.692;2023-05-28T07:26:03;17.70;99.90
42833;DHT22;64089;51.478;5.692;2023-05-28T07:28:29;17.80;99.90
42833;DHT22;64089;51.478;5.692;2023-05-28T07:30:55;17.80;99.90
42833;DHT22;64089;51.478;5.692;2023-05-28T07:33:21;18.00;99.90
42833;DHT22;64089;51.478;5.692;2023-05-28T07:35:47;18.10;99.90
42833;DHT22;64089;51.478;5.692;2023-05-28T07:38:13;18.20;99.90
42833;DHT22;64089;51.478;5.692;2023-05-28T07:40:40;18.30;99.90
42833;DHT22;64089;51.478;5.692;2023-05-28T07:43:06;18.30;99.90
42833;DHT22;64089;51.478;5.692;2023-05-28T07:45:31;18.40;99.90
42833;DHT22;64089;51.478;5.692;2023-05-28T07:47:57;18.40;99.90
42833;DHT22;64089;51.478;5.692;2023-05-28T07:50:23;18.50;99.90
42833;DHT22;64089;51.478;5.692;2023-05-28T07:52:48;18.60;99.90
42833;DHT22;64089;51.478;5.692;2023-05-28T07:55:14;18.70;99.90
42833;DHT22;64089;51.478;5.692;2023-05-28T07:57:41;18.80;99.90
42833;DHT22;64089;51.478;5.692;2023-05-28T08:00:07;18.90;99.90
42833;DHT22;64089;51.478;5.692;2023-05-28T08:02:45;19.10;99.90
42833;DHT22;64089;51.478;5.692;2023-05-28T08:05:10;19.20;99.90
42833;DHT22;64089;51.478;5.692;2023-05-28T08:07:36;19.20;99.90
42833;DHT22;64089;51.478;5.692;2023-05-28T08:10:03;19.40;99.90
42833;DHT22;64089;51.478;5.692;2023-05-28T08:12:29;19.60;99.90
42833;DHT22;64089;51.478;5.692;2023-05-28T08:14:54;19.60;99.90
42833;DHT22;64089;51.478;5.692;2023-05-28T08:17:23;19.70;99.90
42833;DHT22;64089;51.478;5.692;2023-05-28T08:19:49;19.80;99.90
42833;DHT22;64089;51.478;5.692;2023-05-28T08:22:16;19.80;99.90
42833;DHT22;64089;51.478;5.692;2023-05-28T08:24:41;19.90;99.90
42833;DHT22;64089;51.478;5.692;2023-05-28T08:27:07;20.10;99.90
42833;DHT22;64089;51.478;5.692;2023-05-28T08:29:33;20.10;99.90
42833;DHT22;64089;51.478;5.692;2023-05-28T08:31:58;20.10;99.90
42833;DHT22;64089;51.478;5.692;2023-05-28T08:34:25;20.20;99.90
42833;DHT22;64089;51.478;5.692;2023-05-28T08:36:50;20.10;99.90
42833;DHT22;64089;51.478;5.692;2023-05-28T08:39:16;20.00;99.90
42833;DHT22;64089;51.478;5.692;2023-05-28T08:41:43;19.90;99.90
42833;DHT22;64089;51.478;5.692;2023-05-28T08:44:09;20.00;99.90
42833;DHT22;64089;51.478;5.692;2023-05-28T08:46:35;20.10;99.90
42833;DHT22;64089;51.478;5.692;2023-05-28T08:49:02;20.10;99.90
42833;DHT22;64089;51.478;5.692;2023-05-28T08:51:30;20.30;99.90
42833;DHT22;64089;51.478;5.692;2023-05-28T08:53:59;20.40;99.90
42833;DHT22;64089;51.478;5.692;2023-05-28T08:56:26;20.50;99.90
42833;DHT22;64089;51.478;5.692;2023-05-28T08:58:52;20.70;99.90
42833;DHT22;64089;51.478;5.692;2023-05-28T09:01:18;20.80;99.90
42833;DHT22;64089;51.478;5.692;2023-05-28T09:03:43;20.80;99.90
42833;DHT22;64089;51.478;5.692;2023-05-28T09:06:09;20.90;99.90
42833;DHT22;64089;51.478;5.692;2023-05-28T09:08:35;21.00;99.90
42833;DHT22;64089;51.478;5.692;2023-05-28T09:11:11;21.10;99.90
42833;DHT22;64089;51.478;5.692;2023-05-28T09:16:07;21.30;99.90
42833;DHT22;64089;51.478;5.692;2023-05-28T09:18:33;21.40;99.90
42833;DHT22;64089;51.478;5.692;2023-05-28T09:21:07;21.20;99.90
42833;DHT22;64089;51.478;5.692;2023-05-28T09:23:36;21.20;99.90
42833;DHT22;64089;51.478;5.692;2023-05-28T09:26:02;21.10;99.90
42833;DHT22;64089;51.478;5.692;2023-05-28T09:28:28;20.90;99.90
42833;DHT22;64089;51.478;5.692;2023-05-28T09:31:02;21.00;99.90
42833;DHT22;64089;51.478;5.692;2023-05-28T09:33:28;20.90;99.90
42833;DHT22;64089;51.478;5.692;2023-05-28T09:36:01;21.10;99.90
42833;DHT22;64089;51.478;5.692;2023-05-28T09:38:28;21.50;99.90
42833;DHT22;64089;51.478;5.692;2023-05-28T09:41:03;21.70;99.70
42833;DHT22;64089;51.478;5.692;2023-05-28T09:43:29;21.70;99.90
42833;DHT22;64089;51.478;5.692;2023-05-28T09:46:07;21.60;99.90
42833;DHT22;64089;51.478;5.692;2023-05-28T09:48:34;21.70;99.90
42833;DHT22;64089;51.478;5.692;2023-05-28T09:51:02;21.90;99.90
42833;DHT22;64089;51.478;5.692;2023-05-28T09:53:30;21.90;99.70
42833;DHT22;64089;51.478;5.692;2023-05-28T09:56:02;22.10;99.90
42833;DHT22;64089;51.478;5.692;2023-05-28T09:58:33;22.20;99.90
42833;DHT22;64089;51.478;5.692;2023-05-28T10:01:07;22.30;99.90
42833;DHT22;64089;51.478;5.692;2023-05-28T10:03:37;22.50;99.90
42833;DHT22;64089;51.478;5.692;2023-05-28T10:06:06;22.80;99.90
42833;DHT22;64089;51.478;5.692;2023-05-28T10:08:37;23.00;99.60
42833;DHT22;64089;51.478;5.692;2023-05-28T10:11:05;22.80;98.80
42833;DHT22;64089;51.478;5.692;2023-05-28T10:13:31;23.00;98.90
42833;DHT22;64089;51.478;5.692;2023-05-28T10:15:57;23.20;98.10
42833;DHT22;64089;51.478;5.692;2023-05-28T10:18:24;23.30;96.70
42833;DHT22;64089;51.478;5.692;2023-05-28T10:20:52;23.30;97.30
42833;DHT22;64089;51.478;5.692;2023-05-28T10:23:18;23.30;96.30
42833;DHT22;64089;51.478;5.692;2023-05-28T10:25:45;23.20;96.00
42833;DHT22;64089;51.478;5.692;2023-05-28T10:28:14;23.00;94.80
42833;DHT22;64089;51.478;5.692;2023-05-28T10:30:43;22.80;94.80
42833;DHT22;64089;51.478;5.692;2023-05-28T10:33:16;22.70;95.70
42833;DHT22;64089;51.478;5.692;2023-05-28T10:35:56;22.90;96.40
42833;DHT22;64089;51.478;5.692;2023-05-28T10:38:22;23.20;95.60
42833;DHT22;64089;51.478;5.692;2023-05-28T10:40:47;23.20;95.60
42833;DHT22;64089;51.478;5.692;2023-05-28T10:49:14;23.20;95.20
42833;DHT22;64089;51.478;5.692;2023-05-28T10:57:22;24.00;95.10
42833;DHT22;64089;51.478;5.692;2023-05-28T10:59:59;24.30;95.10
42833;DHT22;64089;51.478;5.692;2023-05-28T11:02:27;24.50;94.80
42833;DHT22;64089;51.478;5.692;2023-05-28T11:04:58;24.50;94.30
42833;DHT22;64089;51.478;5.692;2023-05-28T11:07:34;24.60;94.10
42833;DHT22;64089;51.478;5.692;2023-05-28T11:10:02;24.40;95.40
42833;DHT22;64089;51.478;5.692;2023-05-28T11:12:30;22.80;98.50
42833;DHT22;64089;51.478;5.692;2023-05-28T11:14:56;22.00;99.90
42833;DHT22;64089;51.478;5.692;2023-05-28T11:17:22;21.30;99.10
42833;DHT22;64089;51.478;5.692;2023-05-28T11:19:50;21.50;97.70
42833;DHT22;64089;51.478;5.692;2023-05-28T11:22:19;21.10;98.40
42833;DHT22;64089;51.478;5.692;2023-05-28T11:24:58;21.30;98.60
42833;DHT22;64089;51.478;5.692;2023-05-28T11:27:26;22.00;98.60
42833;DHT22;64089;51.478;5.692;2023-05-28T11:29:54;23.00;96.70
42833;DHT22;64089;51.478;5.692;2023-05-28T11:32:20;23.60;93.60
42833;DHT22;64089;51.478;5.692;2023-05-28T11:34:50;23.80;95.10
42833;DHT22;64089;51.478;5.692;2023-05-28T11:39:52;23.10;99.90
42833;DHT22;64089;51.478;5.692;2023-05-28T11:42:19;22.20;99.90
42833;DHT22;64089;51.478;5.692;2023-05-28T11:44:45;22.50;99.90
42833;DHT22;64089;51.478;5.692;2023-05-28T11:47:11;22.70;99.90
42833;DHT22;64089;51.478;5.692;2023-05-28T11:49:37;21.90;99.90
42833;DHT22;64089;51.478;5.692;2023-05-28T11:52:03;21.60;99.90
42833;DHT22;64089;51.478;5.692;2023-05-28T11:54:29;21.10;99.90
42833;DHT22;64089;51.478;5.692;2023-05-28T11:56:54;20.70;99.90
42833;DHT22;64089;51.478;5.692;2023-05-28T11:59:21;21.10;99.90
42833;DHT22;64089;51.478;5.692;2023-05-28T12:01:47;22.10;97.60
42833;DHT22;64089;51.478;5.692;2023-05-28T12:04:12;23.00;97.40
42833;DHT22;64089;51.478;5.692;2023-05-28T12:06:59;23.80;96.90
42833;DHT22;64089;51.478;5.692;2023-05-28T12:09:25;24.50;96.30
42833;DHT22;64089;51.478;5.692;2023-05-28T12:12:10;24.80;95.20
42833;DHT22;64089;51.478;5.692;2023-05-28T12:14:37;25.00;94.40
42833;DHT22;64089;51.478;5.692;2023-05-28T12:17:07;24.90;94.40
42833;DHT22;64089;51.478;5.692;2023-05-28T12:19:34;25.20;96.40
42833;DHT22;64089;51.478;5.692;2023-05-28T12:22:02;25.40;93.80
42833;DHT22;64089;51.478;5.692;2023-05-28T12:24:28;25.30;94.50
42833;DHT22;64089;51.478;5.692;2023-05-28T12:26:54;25.50;94.70
42833;DHT22;64089;51.478;5.692;2023-05-28T12:29:19;25.50;93.30
42833;DHT22;64089;51.478;5.692;2023-05-28T12:31:45;25.40;91.90
42833;DHT22;64089;51.478;5.692;2023-05-28T12:34:11;25.10;92.50
42833;DHT22;64089;51.478;5.692;2023-05-28T12:36:37;25.00;92.00
42833;DHT22;64089;51.478;5.692;2023-05-28T12:39:03;25.20;92.40
42833;DHT22;64089;51.478;5.692;2023-05-28T12:41:32;25.30;91.30
42833;DHT22;64089;51.478;5.692;2023-05-28T12:43:57;24.80;91.30
42833;DHT22;64089;51.478;5.692;2023-05-28T12:46:23;24.50;91.90
42833;DHT22;64089;51.478;5.692;2023-05-28T12:48:48;24.60;92.70
42833;DHT22;64089;51.478;5.692;2023-05-28T12:51:18;24.80;91.70
42833;DHT22;64089;51.478;5.692;2023-05-28T12:53:43;24.50;92.30
42833;DHT22;64089;51.478;5.692;2023-05-28T12:56:09;24.60;92.50
42833;DHT22;64089;51.478;5.692;2023-05-28T12:58:34;24.60;92.20
42833;DHT22;64089;51.478;5.692;2023-05-28T13:01:00;24.50;91.60
42833;DHT22;64089;51.478;5.692;2023-05-28T13:03:26;24.60;91.50
42833;DHT22;64089;51.478;5.692;2023-05-28T13:05:52;24.50;91.30
42833;DHT22;64089;51.478;5.692;2023-05-28T13:08:17;24.60;90.90
42833;DHT22;64089;51.478;5.692;2023-05-28T13:10:43;24.70;91.20
42833;DHT22;64089;51.478;5.692;2023-05-28T13:13:09;24.70;91.60
42833;DHT22;64089;51.478;5.692;2023-05-28T13:15:34;25.00;92.10
42833;DHT22;64089;51.478;5.692;2023-05-28T13:18:00;25.40;92.60
42833;DHT22;64089;51.478;5.692;2023-05-28T13:20:25;25.20;92.50
42833;DHT22;64089;51.478;5.692;2023-05-28T13:22:51;25.30;92.80
42833;DHT22;64089;51.478;5.692;2023-05-28T13:25:16;25.10;92.50
42833;DHT22;64089;51.478;5.692;2023-05-28T13:27:42;25.10;92.60
42833;DHT22;64089;51.478;5.692;2023-05-28T13:30:08;25.40;92.80
42833;DHT22;64089;51.478;5.692;2023-05-28T13:32:34;25.70;92.20
42833;DHT22;64089;51.478;5.692;2023-05-28T13:34:59;25.60;92.40
42833;DHT22;64089;51.478;5.692;2023-05-28T13:37:25;25.70;91.40
42833;DHT22;64089;51.478;5.692;2023-05-28T13:39:51;25.70;91.70
42833;DHT22;64089;51.478;5.692;2023-05-28T13:42:17;25.60;91.70
42833;DHT22;64089;51.478;5.692;2023-05-28T13:44:47;25.50;91.80
42833;DHT22;64089;51.478;5.692;2023-05-28T13:47:13;25.70;92.10
42833;DHT22;64089;51.478;5.692;2023-05-28T13:49:39;26.00;91.80
42833;DHT22;64089;51.478;5.692;2023-05-28T13:52:05;26.10;90.50
42833;DHT22;64089;51.478;5.692;2023-05-28T13:54:30;26.10;89.90
42833;DHT22;64089;51.478;5.692;2023-05-28T13:56:56;26.10;90.50
42833;DHT22;64089;51.478;5.692;2023-05-28T13:59:21;26.10;89.80
42833;DHT22;64089;51.478;5.692;2023-05-28T14:01:47;25.90;90.50
42833;DHT22;64089;51.478;5.692;2023-05-28T14:04:12;25.90;90.60
42833;DHT22;64089;51.478;5.692;2023-05-28T14:06:38;25.80;90.90
42833;DHT22;64089;51.478;5.692;2023-05-28T14:09:04;25.80;91.40
42833;DHT22;64089;51.478;5.692;2023-05-28T14:11:32;26.00;91.60
42833;DHT22;64089;51.478;5.692;2023-05-28T14:13:57;25.90;91.50
42833;DHT22;64089;51.478;5.692;2023-05-28T14:16:23;26.00;91.70
42833;DHT22;64089;51.478;5.692;2023-05-28T14:18:49;25.60;91.50
42833;DHT22;64089;51.478;5.692;2023-05-28T14:21:14;25.10;92.10
42833;DHT22;64089;51.478;5.692;2023-05-28T14:23:43;25.00;92.40
42833;DHT22;64089;51.478;5.692;2023-05-28T14:26:09;25.10;92.40
42833;DHT22;64089;51.478;5.692;2023-05-28T14:28:34;25.20;92.50
42833;DHT22;64089;51.478;5.692;2023-05-28T14:31:00;25.60;91.90
42833;DHT22;64089;51.478;5.692;2023-05-28T14:33:26;25.60;91.20
42833;DHT22;64089;51.478;5.692;2023-05-28T14:35:54;25.40;91.40
42833;DHT22;64089;51.478;5.692;2023-05-28T14:38:20;25.50;91.20
42833;DHT22;64089;51.478;5.692;2023-05-28T14:40:46;25.90;91.50
42833;DHT22;64089;51.478;5.692;2023-05-28T14:43:12;26.10;90.80
42833;DHT22;64089;51.478;5.692;2023-05-28T14:45:37;26.60;90.30
42833;DHT22;64089;51.478;5.692;2023-05-28T14:48:03;26.30;87.80
42833;DHT22;64089;51.478;5.692;2023-05-28T14:50:28;26.00;87.30
42833;DHT22;64089;51.478;5.692;2023-05-28T14:52:54;26.00;88.30
42833;DHT22;64089;51.478;5.692;2023-05-28T14:55:20;25.80;87.40
42833;DHT22;64089;51.478;5.692;2023-05-28T14:57:45;25.90;88.10
42833;DHT22;64089;51.478;5.692;2023-05-28T15:00:11;25.50;88.30
42833;DHT22;64089;51.478;5.692;2023-05-28T15:02:37;25.00;90.10
42833;DHT22;64089;51.478;5.692;2023-05-28T15:05:03;24.90;89.80
42833;DHT22;64089;51.478;5.692;2023-05-28T15:07:30;24.90;89.50
42833;DHT22;64089;51.478;5.692;2023-05-28T15:09:56;24.90;90.00
42833;DHT22;64089;51.478;5.692;2023-05-28T15:12:22;24.90;90.30
42833;DHT22;64089;51.478;5.692;2023-05-28T15:14:47;25.10;90.80
42833;DHT22;64089;51.478;5.692;2023-05-28T15:17:13;25.40;90.40
42833;DHT22;64089;51.478;5.692;2023-05-28T15:19:38;25.40;90.60
42833;DHT22;64089;51.478;5.692;2023-05-28T15:22:04;25.40;90.50
42833;DHT22;64089;51.478;5.692;2023-05-28T15:24:31;25.70;90.70
42833;DHT22;64089;51.478;5.692;2023-05-28T15:26:57;25.40;90.10
42833;DHT22;64089;51.478;5.692;2023-05-28T15:29:23;25.30;90.20
42833;DHT22;64089;51.478;5.692;2023-05-28T15:31:49;25.10;90.10
42833;DHT22;64089;51.478;5.692;2023-05-28T15:34:16;25.00;90.10
42833;DHT22;64089;51.478;5.692;2023-05-28T15:36:42;25.00;90.00
42833;DHT22;64089;51.478;5.692;2023-05-28T15:39:08;24.90;90.00
42833;DHT22;64089;51.478;5.692;2023-05-28T15:41:35;24.90;89.80
42833;DHT22;64089;51.478;5.692;2023-05-28T15:44:01;24.90;89.40